默认 日期 大小 文件数 浏览量 最新下载 xml
-202磁力链接相关资源由用户搜索指令自动获取,结果来源于网络,本站不存储任何资料,亦不承担任何责任,请于24小时内删除,搜索到11715个磁力,显示前4000条数据,用时4ms。
    {"pee-fetish-sick-202-hd-images.zip": 30647956}
创建时间: 2019-12-29 20:58:59 大小:29.23 MB 文件数量:1 热度:6 最近下载:2025-02-26 19:21:02
    {"QR-1024.jpg": 57368, "dmow-202.mp4": 947677138, "性吧永 ...
创建时间: 2019-12-29 23:55:29 大小:904.06 MB 文件数量:10 热度:24 最近下载:2025-02-17 16:44:08
    {"crack": {"run_53f7d.exe": 188726}, "Torrent downloaded from Flashtorrents.org.txt": 48, "Avira Antivirus Pro 17.2.38.202 + Key Till.exe": 13048730}
创建时间: 2019-12-30 00:07:17 大小:12.62 MB 文件数量:3 热度:4 最近下载:2025-01-30 08:40:03
    {"LennarDigital_Sylenth1_VSTi_AU_v2_202_CRACKED.zip": 9631300}
创建时间: 2019-12-30 02:25:23 大小:9.19 MB 文件数量:1 热度:2 最近下载:2025-02-05 07:58:04
    {"宣傳文件": {"AVDVD 成人光碟.url": 221, "dioguitar23@AV 天空.url": 267, "❤dioguitar23❤18p2p.url": 214, "dioguitar23@ HD1080.org.url": 229, "[email protected]": 1794, "_1024核工厂最新地址.mht": 32086, "dioguitar23_WK綜合論壇.url": 208, "dioguitar23@SexInSex! Board. ...
创建时间: 2019-12-30 04:10:35 大小:1.42 GB 文件数量:56 热度:4 最近下载:2024-12-22 21:23:03
    {"LennarDigital_Sylenth1_VSTi_AU_v2_202_MAC_OSX_INTEL-ArCADE21.zip": 13622838}
创建时间: 2019-12-30 05:25:53 大小:12.99 MB 文件数量:1 热度:5 最近下载:2025-02-16 01:27:02
    {"[ThZu.Cc]heydouga4210-202.mp4": 3460041060}
创建时间: 2019-12-30 12:42:04 大小:3.22 GB 文件数量:1 热度:5 最近下载:2025-02-01 20:01:38
    {"LennarDigital_Sylenth1_VSTi_AU_v2_202_MAC_OSX_INTEL-ArCADE.zip": 15835046}
创建时间: 2019-12-30 12:48:34 大小:15.1 MB 文件数量:1 热度:3 最近下载:2025-02-02 13:36:01
    {"WWW.SUMOTORRENT.SZ.jpg": 122592, "Loaris Trojan Remover 3.0.67.202 Full + Medicine.exe": 7500606, "Loaris Trojan Remover 3.0.67.202 Full + Medicine.nfo": 500}
创建时间: 2019-12-30 13:32:26 大小:7.27 MB 文件数量:3 热度:4 最近下载:2025-02-03 22:45:02
    {"pctnewORG.url": 117, "descargas2020ORG.url": 124, "Baron Noir - Temporada 2 [HDTV][Cap.202][Castellano][www.descargas2020.org].avi": 669294046}
创建时间: 2019-12-30 15:34:19 大小:638.29 MB 文件数量:3 热度:4 最近下载:2025-02-14 16:39:02
    {"LennarDigital_Sylenth1_VSTi_AU_v2_202_MAC_OSX_INTEL-ArCADE.zip": 13902743}
创建时间: 2019-12-30 16:01:51 大小:13.26 MB 文件数量:1 热度:4 最近下载:2025-02-10 05:04:03
    {"pctnewORG.url": 117, "descargas2020ORG.url": 124, "Baron Noir - Temporada 2 [HDTV 720p][Cap.202][AC3 5.1 Castellano][www.descargas2020.org].mkv": 2283604352}
创建时间: 2019-12-30 16:36:30 大小:2.13 GB 文件数量:3 热度:4 最近下载:2025-02-02 02:58:03
    {"LennarDigital_Sylenth1_VSTi_AU_v2_202.zip": 10246961}
创建时间: 2019-12-30 23:15:26 大小:9.77 MB 文件数量:1 热度:4 最近下载:2025-02-03 00:58:04
    {"LennarDigital_Sylenth1_VSTi_AU_v2_202.zip": 9792263}
创建时间: 2019-12-30 23:55:09 大小:9.34 MB 文件数量:1 热度:4 最近下载:2025-02-01 03:44:03
    {"LennarDigital_Sylenth1_VSTi_AU_v2_202.zip": 9854269}
创建时间: 2019-12-31 01:49:39 大小:9.4 MB 文件数量:1 热度:4 最近下载:2025-02-04 08:59:02
    {"21.jpg": 69788, "可用地址.url": 238, "歡迎加入.jpg": 180778, "永久地址.url": 249, "heydouga4210-202.mp4": 3460041061, "保持聯絡的終極秘笈 2018年5月27日更新.TXT": 351}
创建时间: 2019-12-31 02:21:16 大小:3.22 GB 文件数量:6 热度:6 最近下载:2025-03-02 03:56:05
    {"NASH-202.mp4": 1054413918, "nash00202pl.jpg": 209024, " ...
创建时间: 2019-12-31 02:42:23 大小:1.07 GB 文件数量:26 热度:5 最近下载:2025-02-05 05:48:04
    {"setup.exe": 992985, "setup-1.bin": 2099006720, "setup-2.bin": 1221498333}
创建时间: 2019-12-31 03:10:15 大小:3.09 GB 文件数量:3 热度:5 最近下载:2025-03-13 17:39:03
    ... 放注册】.url": 202, "论坛 - HD1080.org - Powered ... - Powered by PHPWind.net.url": 202, "NetMe.cc.地球 ... by Discuz!.url": 265}, "001VGD-202.mp4": 1991349848, "001VGD-202b.jpg ...
创建时间: 2019-12-31 03:37:47 大小:1.86 GB 文件数量:39 热度:9 最近下载:2025-01-08 06:43:02
    {"LennarDigital_Sylenth1_VSTi_AU_v2_202.zip": 9630948}
创建时间: 2019-12-31 04:04:50 大小:9.18 MB 文件数量:1 热度:5 最近下载:2025-02-04 07:51:05